createdAt,value
2018-07-27T06:04:46.856Z,51.6
2018-07-27T06:06:52.873Z,50.8
2018-07-27T06:08:58.894Z,50.9
2018-07-27T06:11:04.979Z,51.3
2018-07-27T06:13:11.067Z,49.8
2018-07-27T06:15:17.078Z,50.3
2018-07-27T06:17:23.002Z,49.9
2018-07-27T06:19:28.882Z,50.4
2018-07-27T06:21:34.931Z,49.6
2018-07-27T06:23:41.014Z,49.6
2018-07-27T06:25:47.548Z,49.1
2018-07-27T06:27:53.502Z,49.8
2018-07-27T06:29:59.629Z,50.1
2018-07-27T06:32:06.126Z,49.5
2018-07-27T06:34:11.996Z,49.1
2018-07-27T06:36:18.123Z,49.9
2018-07-27T06:38:24.004Z,49.7
2018-07-27T06:40:29.885Z,49.7
2018-07-27T06:42:35.885Z,49.2
2018-07-27T06:44:41.800Z,49.4
2018-07-27T06:46:47.669Z,48.5
2018-07-27T06:48:53.947Z,49.8
2018-07-27T06:50:59.907Z,49.5
2018-07-27T06:53:05.778Z,48.7
2018-07-27T06:55:11.703Z,49.4
2018-07-27T06:57:17.578Z,49.3
2018-07-27T06:59:23.509Z,49.1
2018-07-27T12:11:27.901Z,48.2
2018-07-27T12:13:33.881Z,47.6
2018-07-27T12:15:39.766Z,47.3
2018-07-27T12:17:45.712Z,47.1
2018-07-27T12:19:51.741Z,47
2018-07-27T12:21:57.679Z,46.8
2018-07-27T12:24:03.621Z,46.7
2018-07-27T12:26:09.490Z,46.5
2018-07-27T12:28:15.435Z,46.4
2018-07-27T12:30:21.313Z,46.4
2018-07-27T12:32:28.270Z,46.2
2018-07-27T12:34:34.270Z,46.3
2018-07-27T12:36:40.185Z,46.3
2018-07-27T12:38:47.065Z,46.1
2018-07-27T12:40:53.218Z,46.3
2018-07-27T12:42:59.164Z,45.9
2018-07-27T12:45:05.289Z,46.2
2018-07-27T12:47:11.782Z,46.3
2018-07-27T12:49:17.735Z,46.4
2018-07-27T12:51:23.899Z,46.5
2018-07-27T12:53:30.457Z,46
2018-07-27T12:55:36.413Z,46
2018-07-27T12:57:42.451Z,46.2
2018-07-27T12:59:48.530Z,46.2
2018-07-27T13:01:54.680Z,46.2
2018-07-27T13:04:00.577Z,46.3
2018-07-27T13:06:06.441Z,46.5
2018-07-27T13:08:12.435Z,46.3
2018-07-27T13:10:18.394Z,46.4
2018-07-27T13:12:27.422Z,46.6
2018-07-27T13:16:40.552Z,46.8
2018-07-27T13:18:49.164Z,46.7
2018-07-27T13:20:55.281Z,46.5
2018-07-27T13:23:01.150Z,46.8
2018-07-27T13:25:07.255Z,46.6
2018-07-27T13:27:13.711Z,46.6
2018-07-27T13:29:20.134Z,46.3
2018-07-27T13:31:26.241Z,46.4
2018-07-27T13:33:32.374Z,46.5
2018-07-27T13:37:45.620Z,46.4
2018-07-27T13:39:51.489Z,46
2018-07-27T13:41:58.633Z,46.1
2018-07-27T13:44:04.595Z,45.7
2018-07-27T13:46:10.652Z,45.7
2018-07-27T13:48:16.606Z,45.5
2018-07-27T13:50:22.557Z,45.6
2018-07-27T13:52:28.430Z,45.7
2018-07-27T13:54:34.464Z,45.7
2018-07-27T13:56:40.405Z,45.9
2018-07-27T13:58:46.364Z,45.5
2018-07-27T14:00:52.233Z,45.8
2018-07-27T14:02:58.273Z,46
2018-07-27T14:05:04.326Z,45.8
2018-07-27T14:07:10.258Z,45.8
2018-07-27T14:09:16.237Z,45.8
2018-07-27T14:11:22.107Z,45.9
2018-07-27T14:13:28.138Z,45.8
2018-07-27T14:15:34.009Z,45.9
2018-07-27T14:17:39.911Z,46.1
2018-07-27T14:19:45.887Z,46.2
2018-07-27T14:21:51.765Z,46.2
2018-07-27T14:23:57.780Z,46.3
2018-07-27T14:26:03.773Z,46
2018-07-27T14:28:09.684Z,45.9
2018-07-27T14:30:15.905Z,45.8
2018-07-27T14:32:21.937Z,45.7
2018-07-27T14:34:27.961Z,46.1
2018-07-27T14:36:33.914Z,46.1
2018-07-27T14:38:40.077Z,46.3
2018-07-27T14:40:46.035Z,46.1
2018-07-27T14:42:52.086Z,46.1
2018-07-27T14:44:58.130Z,46.1
2018-07-27T14:47:04.808Z,46.1
2018-07-27T14:49:10.765Z,46.2
2018-07-27T14:51:16.713Z,46.1
2018-07-27T14:53:22.703Z,46.1
2018-07-27T14:55:28.723Z,46.1
2018-07-27T14:57:34.619Z,46.4
2018-07-27T14:59:40.729Z,46.4
2018-07-27T15:01:46.683Z,46.5
2018-07-27T15:03:52.626Z,46.4
2018-07-27T15:05:58.793Z,46.3
2018-07-27T15:08:04.721Z,46.4
2018-07-27T15:10:10.559Z,46
2018-07-27T15:12:16.543Z,45.8
2018-07-27T15:14:22.435Z,45.6
2018-07-27T15:16:31.332Z,45.7
2018-07-27T15:18:37.375Z,45.7
2018-07-27T20:03:14.846Z,55.2
2018-07-27T20:06:19.875Z,51.4
2018-07-27T20:09:25.181Z,49.2
2018-07-27T20:12:29.930Z,47.8
2018-07-27T20:15:34.857Z,46.6
2018-07-27T20:18:39.653Z,46.1
2018-07-27T20:21:44.588Z,51.9
2018-07-27T20:24:49.308Z,45.7
2018-07-27T20:27:54.252Z,45.1
2018-07-27T20:30:59.019Z,44.9
2018-07-27T20:34:03.782Z,44.7
2018-07-27T20:37:08.756Z,44.6
2018-07-27T20:40:13.509Z,44.5
2018-07-27T20:43:18.272Z,44.5
2018-07-27T20:46:23.037Z,44.7
2018-07-27T20:49:27.803Z,44.8
2018-07-27T20:52:33.516Z,44.5
2018-07-27T20:55:38.536Z,44.1
2018-07-27T20:58:43.946Z,44.8
2018-07-27T21:01:48.713Z,44.9
2018-07-27T21:04:53.491Z,45
2018-07-27T21:07:58.281Z,44.8
2018-07-27T21:11:03.106Z,45.3
2018-07-27T21:14:07.874Z,45.3
2018-07-27T21:17:12.799Z,45.1
2018-07-27T21:20:18.094Z,44.9
2018-07-27T21:23:22.911Z,45
2018-07-27T21:26:48.510Z,44.5
2018-07-27T21:29:53.267Z,44.3
2018-07-27T21:32:58.036Z,44.1
2018-07-27T21:41:20.967Z,44.6
2018-07-27T21:44:25.817Z,45.2
2018-07-27T21:47:30.572Z,44.6
2018-07-27T21:50:38.062Z,44.8
2018-07-27T21:51:52.109Z,44.3
2018-07-27T21:54:56.898Z,44.3
2018-07-27T21:58:01.670Z,44.2
2018-07-27T22:01:06.445Z,44
2018-07-27T22:04:11.220Z,44.8
2018-07-27T22:07:16.003Z,45.1
2018-07-27T22:54:32.997Z,45.2
2018-07-27T22:57:37.707Z,100
2018-07-27T23:00:42.504Z,100
2018-07-27T23:03:47.420Z,100
2018-07-27T23:06:52.463Z,100
2018-07-27T23:09:57.239Z,100
2018-07-27T23:13:02.071Z,100
2018-07-27T23:16:06.849Z,100
2018-07-27T23:19:11.621Z,100
2018-07-27T23:22:16.397Z,100
2018-07-27T23:25:21.210Z,100
2018-07-27T23:28:25.987Z,100
2018-07-27T23:31:30.765Z,100
2018-07-27T23:34:35.545Z,100
2018-07-27T23:37:40.340Z,100
2018-07-27T23:40:45.095Z,100
2018-07-27T23:43:49.872Z,100
2018-07-27T23:46:54.649Z,100
2018-07-27T23:49:59.426Z,100
2018-07-27T23:53:04.199Z,100
2018-07-27T23:56:08.976Z,100
2018-07-27T23:59:13.789Z,100
